UHBB 170300Z 30004MPS 260V340 9999 FEW033 04/M15 Q1016 R36/090060 NOSIG RMK QFE745/0993
QNH:(hPa/inHg/mmHg)1016 / 30 / 762
QFE:(hPa/inHg/mmHg)992 / 29.30 / 744
Temperature4
Dew Point-15
Visibility> 10000
Weather
Cloud CoverFEW (3300);
Transition Height900 m./3600 ft.
Transition LevelFL50
SQUAWK